createdAt,value
2022-10-18T00:00:45.971Z,83.52
2022-10-18T00:03:17.406Z,79.97
2022-10-18T00:05:46.883Z,86.67
2022-10-18T00:08:35.933Z,87.01
2022-10-18T00:11:12.730Z,86.68
2022-10-18T00:13:47.923Z,84.53
2022-10-18T00:16:29.479Z,88.14
2022-10-18T00:19:03.510Z,90.10
2022-10-18T00:21:36.533Z,91.61
2022-10-18T00:24:23.423Z,90.15
2022-10-18T00:27:16.662Z,85.50
2022-10-18T00:29:47.717Z,82.37
2022-10-18T00:32:42.234Z,86.83
2022-10-18T00:35:17.334Z,88.75
2022-10-18T00:37:48.236Z,87.59
2022-10-18T00:40:18.445Z,88.12
2022-10-18T00:42:47.267Z,88.90
2022-10-18T00:45:24.466Z,89.50
2022-10-18T00:48:01.335Z,92.79
2022-10-18T00:50:37.043Z,93.17
2022-10-18T00:53:09.973Z,92.99
2022-10-18T00:55:41.233Z,93.32
2022-10-18T00:58:10.705Z,93.91
2022-10-18T01:00:41.378Z,91.95
2022-10-18T01:03:13.479Z,93.52
2022-10-18T01:05:47.989Z,93.32
2022-10-18T01:11:49.028Z,90.29
2022-10-18T01:14:53.388Z,89.80
2022-10-18T01:17:46.233Z,90.51
2022-10-18T01:21:03.857Z,90.81
2022-10-18T01:24:12.957Z,87.90
2022-10-18T01:27:11.025Z,86.32
2022-10-18T01:30:19.302Z,83.99
2022-10-18T01:33:00.629Z,80.49
2022-10-18T01:35:41.676Z,79.25
2022-10-18T01:38:18.374Z,79.63
2022-10-18T01:40:52.640Z,78.32
2022-10-18T01:43:30.904Z,78.08
2022-10-18T01:46:22.951Z,86.21
2022-10-18T01:49:04.387Z,88.65
2022-10-18T01:51:36.543Z,85.77
2022-10-18T01:54:30.935Z,82.96
2022-10-18T01:57:32.809Z,88.23
2022-10-18T02:00:19.753Z,83.56
2022-10-18T02:03:23.396Z,86.41
2022-10-18T02:06:39.912Z,87.11
2022-10-18T02:09:24.435Z,85.95
2022-10-18T02:11:56.324Z,91.72
2022-10-18T02:14:28.156Z,92.15
2022-10-18T02:17:04.432Z,91.99
2022-10-18T02:19:37.497Z,92.17
2022-10-18T02:22:35.146Z,86.60
2022-10-18T02:25:14.319Z,91.36
2022-10-18T02:28:01.025Z,87.18
2022-10-18T02:30:56.545Z,89.02
2022-10-18T02:33:49.698Z,88.30
2022-10-18T02:36:42.817Z,89.79
2022-10-18T02:39:19.107Z,88.16
2022-10-18T02:42:16.825Z,87.13
2022-10-18T02:44:55.502Z,82.69
2022-10-18T02:47:44.466Z,83.54
2022-10-18T02:50:15.331Z,82.98
2022-10-18T02:52:54.754Z,83.20
2022-10-18T02:57:57.210Z,85.45
2022-10-18T03:00:28.438Z,82.89
2022-10-18T03:02:55.480Z,80.32
2022-10-18T03:05:27.917Z,87.95
2022-10-18T03:08:01.563Z,81.85
2022-10-18T03:10:46.952Z,83.12
2022-10-18T03:13:18.595Z,84.52
2022-10-18T03:16:06.300Z,84.58
2022-10-18T03:18:46.548Z,84.01
2022-10-18T03:21:32.717Z,86.09
2022-10-18T03:24:10.987Z,88.04
2022-10-18T03:26:55.308Z,89.74
2022-10-18T03:29:28.763Z,84.61
2022-10-18T03:32:00.007Z,87.81
2022-10-18T03:34:34.958Z,84.91
2022-10-18T03:37:18.700Z,83.00
2022-10-18T03:39:46.588Z,83.18
2022-10-18T03:42:32.492Z,80.56
2022-10-18T03:45:20.788Z,84.70
2022-10-18T03:47:53.974Z,83.20
2022-10-18T03:50:42.328Z,88.42
2022-10-18T03:53:16.358Z,85.19
2022-10-18T03:55:52.753Z,89.54
2022-10-18T03:58:22.090Z,88.75
2022-10-18T04:00:54.558Z,91.83
2022-10-18T04:03:28.887Z,90.62
2022-10-18T04:06:04.807Z,91.02
2022-10-18T04:08:33.612Z,89.15
2022-10-18T04:11:33.680Z,91.56
2022-10-18T04:14:27.355Z,94.12
2022-10-18T04:16:54.509Z,91.95
2022-10-18T04:19:43.071Z,92.94
2022-10-18T04:22:13.593Z,89.11
2022-10-18T04:25:11.066Z,88.37
2022-10-18T04:27:47.543Z,92.97
2022-10-18T04:30:40.447Z,93.94
2022-10-18T04:33:11.232Z,88.72
2022-10-18T04:35:48.773Z,91.09
2022-10-18T04:38:21.261Z,94.75
2022-10-18T04:40:50.637Z,91.40
2022-10-18T04:43:20.686Z,88.24
2022-10-18T04:46:07.935Z,90.21
2022-10-18T04:48:40.780Z,92.14
2022-10-18T04:51:10.488Z,89.42
2022-10-18T04:53:41.525Z,86.19
2022-10-18T04:56:11.427Z,87.19
2022-10-18T04:59:00.867Z,92.38
2022-10-18T05:01:42.748Z,87.81
2022-10-18T05:04:43.015Z,84.07
2022-10-18T05:07:15.360Z,84.94
2022-10-18T05:10:28.958Z,86.89
2022-10-18T05:13:34.444Z,87.52
2022-10-18T05:16:18.952Z,88.89
2022-10-18T05:19:10.244Z,88.38
2022-10-18T05:21:42.955Z,90.04
2022-10-18T05:24:42.180Z,88.63
2022-10-18T05:27:50.748Z,88.90
2022-10-18T05:33:40.515Z,90.49
2022-10-18T05:36:21.647Z,85.95
2022-10-18T05:39:13.289Z,85.90
2022-10-18T05:41:47.511Z,86.19
2022-10-18T05:44:30.250Z,86.62
2022-10-18T05:47:19.013Z,90.50
2022-10-18T05:49:46.701Z,89.31
2022-10-18T05:52:26.261Z,95.09
2022-10-18T06:02:45.897Z,90.37
2022-10-18T06:05:18.687Z,88.16
2022-10-18T06:08:18.258Z,86.32
2022-10-18T06:11:16.758Z,85.00
2022-10-18T06:14:05.474Z,83.38
2022-10-18T06:16:48.181Z,85.64
2022-10-18T06:19:28.937Z,90.57
2022-10-18T06:22:06.053Z,95.89
2022-10-18T06:24:57.271Z,93.25
2022-10-18T06:27:48.256Z,94.19
2022-10-18T06:30:19.412Z,93.04
2022-10-18T06:32:50.059Z,87.58
2022-10-18T06:35:45.446Z,91.04
2022-10-18T06:38:21.219Z,87.98
2022-10-18T06:41:10.358Z,90.89
2022-10-18T06:43:49.701Z,86.46
2022-10-18T06:46:29.464Z,91.60
2022-10-18T06:48:58.033Z,92.22
2022-10-18T06:51:32.225Z,91.60
2022-10-18T06:54:18.964Z,93.64
2022-10-18T06:56:55.877Z,93.86
2022-10-18T06:59:32.603Z,92.19
2022-10-18T07:02:16.320Z,90.64
2022-10-18T07:04:47.644Z,90.01
2022-10-18T07:07:15.279Z,89.05
2022-10-18T07:10:01.869Z,88.94
2022-10-18T07:12:44.779Z,84.30
2022-10-18T07:15:26.303Z,84.23
2022-10-18T07:17:57.972Z,88.85
2022-10-18T07:20:25.453Z,91.98
2022-10-18T07:23:25.713Z,92.95
2022-10-18T07:25:57.487Z,92.52
2022-10-18T07:29:05.173Z,90.59
2022-10-18T07:31:55.178Z,94.21
2022-10-18T07:34:22.648Z,92.35
2022-10-18T07:37:10.243Z,93.03
2022-10-18T07:39:55.550Z,91.72
2022-10-18T07:42:37.687Z,87.02
2022-10-18T07:45:22.047Z,85.70
2022-10-18T07:47:56.303Z,90.66
2022-10-18T07:50:33.842Z,92.28
2022-10-18T07:53:21.115Z,93.40
2022-10-18T07:56:16.744Z,87.73
2022-10-18T07:59:13.221Z,89.25
2022-10-18T08:01:45.503Z,96.22
2022-10-18T08:04:44.450Z,90.38
2022-10-18T08:07:34.002Z,88.53
2022-10-18T08:10:25.227Z,90.67
2022-10-18T08:13:31.397Z,90.93
2022-10-18T08:19:16.004Z,94.57
2022-10-18T08:21:48.228Z,86.11
2022-10-18T08:24:32.808Z,90.78
2022-10-18T08:27:40.352Z,87.31
2022-10-18T08:30:17.219Z,89.11
2022-10-18T08:32:52.939Z,90.55
2022-10-18T08:35:27.983Z,95.49
2022-10-18T08:38:06.402Z,96.98
2022-10-18T08:41:05.901Z,90.09
2022-10-18T08:43:56.397Z,93.14
2022-10-18T08:46:29.946Z,92.07
2022-10-18T08:49:36.223Z,85.79
2022-10-18T08:55:29.220Z,87.57
2022-10-18T08:58:24.718Z,87.19
2022-10-18T09:01:20.308Z,89.87
2022-10-18T09:04:37.409Z,86.56
2022-10-18T09:07:52.136Z,85.35
2022-10-18T09:11:41.634Z,81.92
2022-10-18T09:14:52.542Z,80.96
2022-10-18T09:17:59.026Z,76.07
2022-10-18T09:20:26.198Z,82.56
2022-10-18T09:23:22.509Z,81.92
2022-10-18T09:26:12.804Z,78.07
2022-10-18T09:29:10.389Z,78.64
2022-10-18T09:32:05.333Z,81.43
2022-10-18T09:35:18.563Z,78.22
2022-10-18T09:38:18.558Z,69.65
2022-10-18T09:48:22.656Z,77.64
2022-10-18T09:51:11.457Z,67.63
2022-10-18T09:54:21.144Z,68.69
2022-10-18T10:00:17.735Z,79.59
2022-10-18T10:02:52.515Z,70.32
2022-10-18T10:05:42.199Z,80.34
2022-10-18T10:08:20.274Z,80.81
